Weather

EOSM Weather Station at 8:13 on 21/04/18

Wind: 2kt ESE ( 2mph 109° ) Today's High: 15kt at 1:22 QFE: 1016mb QNH: 1020mb (Steady) Temp: 10°C Dew Point: 7°C Humidity: 85% Rain: None Sunrise: 5:49 Sunset: 20:28

TAFs

  • Edinburgh TAF EGPH 210500Z 2106/2206 19005KT 9000 FEW045 BECMG 2106/2108 9999 PROB30 2200/2206 6000
  • Leuchars TAF EGQL 210411Z 2106/2115 20004KT 9999 FEW035

Live Airfield Webcams

Looking north towards Berwick Law Looking west Looking east

Windy.com Forecast

OZEE AND BLUE SKY BLUE FLYING SUITS

We are offering a 5% discount on the price of Ozee and Blue Sky Blue flying suits - please send an email to jill@eosm.co.uk giving your choice of suit, size and colour preference.

Pooleys advert

Pooleys are supporting East of Scotland Microlights members and guests by offering 5% discount to anyone making a purchase on their website www.pooleys.com. Simply enter the promotional code "EOSM" when you checkout and you will get a 5% discount on whatever you buy.